ADDS METAR Data INFO
IDs: Format: Raw Decoded Include TAF

Data at: 1136 UTC 23 Jun 2018

KSHV 231056Z 20007KT 10SM FEW017 FEW022 SCT250 27/25 A2985 RMK AO2 SLP105 T02720250
KSHV 231050Z 20006KT 10SM FEW017 SCT022 27/25 A2986 RMK AO2
KSHV 231021Z 21005KT 10SM BKN015 27/25 A2985 RMK AO2 T02720250
KSHV 230956Z 22005KT 10SM FEW017 28/25 A2985 RMK AO2 SLP105 T02780250
KSHV 230953Z 23008KT 10SM SCT017 28/25 A2985 RMK AO2
KSHV 230904Z 20010KT 10SM OVC015 28/26 A2981 RMK AO2 T02830256
KSHV 230856Z 20009KT 10SM OVC014 28/26 A2980 RMK AO2 SLP087 T02830256 53006
KSHV 230756Z 19010KT 10SM BKN013 28/26 A2979 RMK AO2 SLP081 T02780256
KSHV 230709Z 20012KT 10SM BKN012 28/26 A2978 RMK AO2 T02780256
KSHV 230656Z 21011KT 10SM CLR 28/26 A2978 RMK AO2 SLP079 T02780256
KSHV 230556Z 20010KT 10SM CLR 29/25 A2978 RMK AO2 SLP081 T02890250 10344 20289 403610256 50006
KSHV 230456Z 22007KT 10SM CLR 29/24 A2980 RMK AO2 SLP086 T02940244
KSHV 230356Z 19010KT 10SM CLR 30/24 A2977 RMK AO2 SLP076 T03000244
KSHV 230256Z 18007KT 10SM CLR 30/24 A2976 RMK AO2 SLP074 T03000244 53004
KSHV 230156Z 18008KT 10SM CLR 32/24 A2975 RMK AO2 SLP068 T03170239
KSHV 230056Z 20006KT 10SM FEW050 FEW110 SCT290 33/22 A2975 RMK AO2 SLP068 T03330222
KSHV 222356Z 22009KT 10SM FEW050 FEW110 SCT290 34/22 A2975 RMK AO2 SLP070 T03440217 10361 20339 56012
KSHV 222256Z 21010KT 10SM FEW050 FEW110 SCT290 35/22 A2976 RMK AO2 SLP071 T03500217
KSHV 222156Z 23011KT 10SM FEW050 FEW110 SCT290 36/22 A2978 RMK AO2 SLP078 TCU DSNT NW-N T03560222
KSHV 222056Z 23012G18KT 10SM FEW050 FEW110 SCT290 36/22 A2979 RMK AO2 SLP082 T03560217 56025
KSHV 221956Z 22011KT 10SM FEW050 FEW110 SCT280 36/22 A2980 RMK AO2 SLP085 T03560217
KSHV 221856Z 25011G19KT 10SM SCT049 36/22 A2982 RMK AO2 PRESFR SLP092 T03560222
KSHV 221756Z 23015KT 10SM FEW040 SCT090 34/23 A2986 RMK AO2 SLP108 T03440228 10344 20261 58001
KSHV 221656Z 24013KT 10SM FEW040 SCT090 32/22 A2988 RMK AO2 SLP113 T03220222 $
KSHV 221556Z 25017G21KT 10SM FEW027 32/21 A2988 RMK AO2 SLP112 T03220211
KSHV 221456Z 23012KT 10SM FEW024 31/23 A2987 RMK AO2 SLP109 T03060228 51009
KSHV 221356Z 23012KT 10SM FEW017 28/24 A2986 RMK AO2 SLP107 T02830239
KSHV 221330Z 23011G19KT 10SM FEW013 28/24 A2985 RMK AO2 T02780244
KSHV 221256Z 24013KT 10SM BKN012 27/24 A2985 RMK AO2 SLP102 T02670244
KSHV 221224Z 22010G17KT 9SM BKN011 26/24 A2985 RMK AO2 T02610244
KSHV 221156Z 22011G18KT 9SM FEW013 SCT090 26/24 A2984 RMK AO2 SLP099 T02610244 10267 20256 50001
KSHV 221139Z 22011KT 8SM SCT013 26/24 A2984 RMK AO2 T02610244
KSHV 221056Z 23008KT 10SM OVC011 26/24 A2985 RMK AO2 SLP102 T02610244
KSHV 221016Z 22008KT 9SM BKN010 26/25 A2984 RMK AO2 CIG 008V013 T02560250 $
KSHV 220956Z 22007KT 9SM FEW011 26/25 A2984 RMK AO2 SLP101 T02560250 $
KSHV 220947Z 21008KT 9SM FEW009 26/25 A2984 RMK AO2 T02560250 $
KSHV 220856Z 21007KT 9SM CLR 26/25 A2983 RMK AO2 SLP098 T02610250 55003 $
KSHV 220756Z 21007KT 9SM CLR 26/26 A2983 RMK AO2 SLP097 T02610256 $
KSHV 220656Z 20008KT 9SM CLR 26/26 A2983 RMK AO2 SLP098 T02610256 $
KSHV 220556Z 20008KT 10SM CLR 27/25 A2984 RMK AO2 SLP101 T02670250 10328 20261 403330233 58005 $
KSHV 220456Z 19007KT 10SM FEW280 27/24 A2986 RMK AO2 SLP106 T02720244 $
KSHV 220356Z 19005KT 10SM FEW280 27/24 A2986 RMK AO2 SLP107 T02720244 $
KSHV 220256Z 20004KT 10SM FEW100 FEW280 28/24 A2986 RMK AO2 SLP106 T02830239 53005 $
KSHV 220156Z 21003KT 10SM FEW100 FEW280 29/23 A2984 RMK AO2 SLP102 ACC DSNT NW-N T02890233 $
KSHV 220056Z 26005KT 10SM FEW100 FEW280 31/22 A2984 RMK AO2 SLP100 ACC DSNT W-N T03110222 $
KSHV 212356Z 27008KT 10SM FEW043 FEW280 32/22 A2984 RMK AO2 SLP100 T03220222 10333 20294 55008 $